Kunszentmarton, Hungary
Current Conditions -  °F | °C
As of 1:15 AM on Saturday 25 Oct 2014 (Local Time) from LHSN Reporting Station
Overcast Overcast  
Wind Chill: 35°   Ceiling: 900
Heat Index: 41°   Visibility: 6mi
Dew Point: 39°   Wind: 9mph
Humidity: 93%   Direction: 40°NE
Pressure: 30.21"   Gusts: NA
Location:  46.84°N, 20.29°E
Report Text: LHSN 242315Z 04004MPS 9999 BKN009 OVC013 05/04 Q1023 NOSIG RMK GRN
Loading
Personal Weather Stations






























Interactive Weather Map
Tropical Storm Tracking
New forecast layout! Learn more

10-Day Weather Forecast

Advertisements
Track Severe Weather on mobile